weather.gov     
National Weather Service

Terminal Aerodrome Forecast
NWS Homepage
This page is being discontinued on March 12, 2014.
The same data is available at this site. Please update your bookmarks.
Thank you, and we apologize for the inconvenience.
Please send an email to SR-SRH.Webmaster@noaa.gov with any concerns.


Current Version
Previous Version:    01  02  03  04  05  06  07  08  09  10  11  12  13  14  15  16  17  18  19  20  21  22  23  24  25  
[Printable]
274
FTUS43 KILX 211100
TAFPIA
TAF
KPIA 211131Z 2112/2212 20009KT P6SM BKN080
     FM211400 22010KT P6SM VCSH BKN070
     FM211700 24013KT 6SM -SHRA VCTS SCT040CB BKN070
     FM220100 29010KT P6SM VCSH OVC045
     FM220600 35010KT P6SM SKC=


U.S. Dept. of Commerce
NOAA National Weather Service
1325 East West Highway
Silver Spring, MD 20910
E-mail: w-nws.webmaster@noaa.gov
Page last modified: May 16, 2007
NATIONAL WEATHER SERVICE: for Safety, for Work, for Fun - FOR LIFE